createdAt,value
2019-03-13T00:02:16.237Z,47.90
2019-03-13T00:04:46.182Z,47.10
2019-03-13T00:07:15.578Z,47.90
2019-03-13T00:09:44.857Z,47.10
2019-03-13T00:12:14.200Z,47.30
2019-03-13T00:14:43.554Z,47.10
2019-03-13T00:17:12.854Z,47.20
2019-03-13T00:19:42.201Z,47.80
2019-03-13T00:22:13.188Z,48.00
2019-03-13T00:24:43.117Z,47.80
2019-03-13T00:27:12.457Z,48.20
2019-03-13T00:29:42.193Z,48.20
2019-03-13T00:32:13.229Z,48.00
2019-03-13T00:34:42.648Z,48.60
2019-03-13T00:37:11.922Z,49.20
2019-03-13T00:39:41.198Z,50.70
2019-03-13T00:42:10.521Z,52.00
2019-03-13T00:44:39.961Z,52.80
2019-03-13T00:47:09.274Z,53.60
2019-03-13T00:49:38.569Z,54.50
2019-03-13T00:52:08.021Z,54.70
2019-03-13T00:54:37.298Z,55.50
2019-03-13T00:57:06.653Z,56.00
2019-03-13T00:59:36.013Z,57.00
2019-03-13T01:02:23.205Z,58.10
2019-03-13T01:05:01.593Z,58.80
2019-03-13T01:07:30.937Z,59.10
2019-03-13T01:10:00.285Z,59.20
2019-03-13T01:12:29.605Z,59.70
2019-03-13T01:14:58.997Z,60.20
2019-03-13T01:17:28.980Z,59.90
2019-03-13T01:19:58.309Z,60.80
2019-03-13T01:22:27.673Z,60.90
2019-03-13T01:24:57.045Z,61.20
2019-03-13T01:27:26.333Z,62.10
2019-03-13T01:29:56.051Z,62.40
2019-03-13T01:32:42.998Z,62.40
2019-03-13T01:35:37.564Z,62.20
2019-03-13T01:38:06.909Z,63.10
2019-03-13T01:40:36.233Z,64.00
2019-03-13T01:43:05.537Z,63.60
2019-03-13T01:45:34.929Z,63.60
2019-03-13T01:48:04.601Z,63.50
2019-03-13T01:50:33.929Z,63.30
2019-03-13T01:53:03.221Z,63.00
2019-03-13T01:55:32.553Z,62.60
2019-03-13T01:58:02.902Z,62.10
2019-03-13T02:00:32.616Z,62.40
2019-03-13T02:03:01.923Z,63.10
2019-03-13T02:05:31.304Z,63.80
2019-03-13T02:08:00.579Z,64.00
2019-03-13T02:10:29.906Z,64.40
2019-03-13T02:12:59.462Z,63.90
2019-03-13T02:15:28.773Z,64.00
2019-03-13T02:17:58.105Z,63.90
2019-03-13T02:20:27.506Z,63.50
2019-03-13T02:22:56.879Z,63.10
2019-03-13T02:25:26.194Z,63.10
2019-03-13T02:27:55.466Z,62.70
2019-03-13T02:30:26.113Z,62.70
2019-03-13T02:32:55.438Z,62.80
2019-03-13T02:35:24.805Z,62.10
2019-03-13T02:37:54.225Z,63.30
2019-03-13T02:40:23.557Z,63.20
2019-03-13T02:42:52.902Z,64.30
2019-03-13T02:45:22.259Z,64.60
2019-03-13T02:47:51.602Z,64.00
2019-03-13T02:50:21.005Z,63.40
2019-03-13T02:52:50.282Z,65.80
2019-03-13T02:55:19.690Z,65.00
2019-03-13T02:57:48.974Z,64.80
2019-03-13T03:00:21.019Z,64.70
2019-03-13T03:02:53.654Z,64.40
2019-03-13T03:05:23.054Z,64.20
2019-03-13T03:07:52.552Z,64.80
2019-03-13T03:10:22.494Z,64.50
2019-03-13T03:12:51.858Z,65.20
2019-03-13T03:15:21.153Z,64.70
2019-03-13T03:17:50.498Z,64.60
2019-03-13T03:20:20.748Z,64.50
2019-03-13T03:22:50.166Z,64.40
2019-03-13T03:25:19.577Z,65.60
2019-03-13T03:27:48.898Z,64.50
2019-03-13T03:30:20.945Z,64.50
2019-03-13T03:32:50.309Z,64.70
2019-03-13T03:35:19.762Z,64.00
2019-03-13T03:37:49.125Z,64.00
2019-03-13T03:40:22.662Z,64.80
2019-03-13T03:42:49.904Z,64.60
2019-03-13T03:45:19.249Z,64.40
2019-03-13T03:47:48.569Z,64.60
2019-03-13T03:50:18.708Z,63.70
2019-03-13T03:52:48.152Z,64.00
2019-03-13T03:55:17.472Z,63.80
2019-03-13T03:57:46.837Z,63.60
2019-03-13T04:00:16.198Z,64.50
2019-03-13T04:02:45.692Z,64.30
2019-03-13T04:05:15.599Z,64.40
2019-03-13T04:07:45.313Z,64.90
2019-03-13T04:10:15.061Z,64.90
2019-03-13T04:12:44.460Z,65.00
2019-03-13T04:15:14.480Z,64.70
2019-03-13T04:17:43.799Z,64.50
2019-03-13T04:20:13.619Z,64.20
2019-03-13T04:22:43.516Z,64.20
2019-03-13T04:25:33.659Z,63.90
2019-03-13T04:28:03.525Z,63.90
2019-03-13T04:30:32.843Z,64.80
2019-03-13T04:33:02.173Z,65.00
2019-03-13T04:35:31.506Z,65.00
2019-03-13T04:38:01.882Z,65.20
2019-03-13T04:40:31.217Z,65.90
2019-03-13T04:43:00.540Z,65.60
2019-03-13T04:45:29.825Z,65.90
2019-03-13T04:47:59.100Z,66.30
2019-03-13T04:50:28.429Z,67.00
2019-03-13T04:52:57.761Z,67.10
2019-03-13T04:55:27.123Z,66.80
2019-03-13T04:57:56.432Z,66.60
2019-03-13T05:00:26.016Z,66.60
2019-03-13T05:02:55.391Z,66.50
2019-03-13T05:06:19.087Z,65.10
2019-03-13T05:08:55.402Z,64.00
2019-03-13T05:11:24.747Z,62.50
2019-03-13T05:13:54.093Z,62.60
2019-03-13T05:16:23.369Z,62.10
2019-03-13T05:18:52.715Z,61.30
2019-03-13T05:21:22.067Z,60.70
2019-03-13T05:23:51.481Z,60.70
2019-03-13T05:26:20.799Z,60.80
2019-03-13T05:28:50.085Z,60.70
2019-03-13T05:31:19.417Z,60.90
2019-03-13T05:33:48.712Z,60.80
2019-03-13T05:36:18.125Z,62.00
2019-03-13T05:38:47.441Z,59.70
2019-03-13T05:41:16.795Z,60.20
2019-03-13T05:43:46.073Z,60.60
2019-03-13T05:46:16.461Z,60.70
2019-03-13T05:48:45.801Z,60.90
2019-03-13T05:51:15.205Z,59.80
2019-03-13T05:53:44.570Z,59.10
2019-03-13T05:56:13.860Z,58.60
2019-03-13T05:58:43.254Z,60.00
2019-03-13T06:01:12.546Z,58.10
2019-03-13T06:03:42.057Z,58.80
2019-03-13T06:06:11.391Z,59.80
2019-03-13T06:08:40.675Z,58.90
2019-03-13T06:11:10.008Z,59.10
2019-03-13T06:13:39.373Z,58.80
2019-03-13T06:16:08.658Z,58.90
2019-03-13T06:18:38.001Z,59.10
2019-03-13T06:21:07.310Z,59.50
2019-03-13T06:23:36.649Z,59.80
2019-03-13T06:26:05.967Z,60.60
2019-03-13T06:28:35.459Z,60.60
2019-03-13T06:31:04.730Z,60.30
2019-03-13T06:33:34.008Z,60.20
2019-03-13T06:36:03.430Z,61.00
2019-03-13T06:38:33.927Z,61.10
2019-03-13T06:41:05.234Z,61.10
2019-03-13T06:43:34.408Z,58.40
2019-03-13T06:46:04.938Z,55.20
2019-03-13T06:48:34.352Z,54.30
2019-03-13T06:51:04.731Z,53.30
2019-03-13T06:53:34.090Z,53.10
2019-03-13T06:56:03.432Z,53.30
2019-03-13T06:59:00.929Z,53.40
2019-03-13T07:01:49.197Z,54.40
2019-03-13T07:04:24.395Z,55.40
2019-03-13T07:07:25.050Z,56.20
2019-03-13T07:10:02.945Z,58.50
2019-03-13T07:12:51.234Z,58.90
2019-03-13T07:15:26.906Z,58.50
2019-03-13T07:18:10.839Z,57.80
2019-03-13T07:21:17.538Z,57.40
2019-03-13T07:24:04.457Z,57.30
2019-03-13T07:26:40.601Z,56.50
2019-03-13T07:29:38.878Z,56.00
2019-03-13T07:32:20.082Z,55.50
2019-03-13T07:35:05.442Z,54.20
2019-03-13T07:37:44.613Z,53.60
2019-03-13T07:40:27.263Z,53.20
2019-03-13T07:43:14.635Z,52.20
2019-03-13T07:45:58.785Z,52.20
2019-03-13T07:48:47.073Z,52.40
2019-03-13T07:51:23.305Z,52.50
2019-03-13T07:54:11.580Z,52.90
2019-03-13T07:57:06.237Z,53.40
2019-03-13T07:59:49.493Z,53.50
2019-03-13T08:02:23.729Z,53.50
2019-03-13T08:05:12.855Z,53.70
2019-03-13T08:07:55.425Z,53.80
2019-03-13T08:10:50.550Z,53.80
2019-03-13T08:13:37.531Z,53.90
2019-03-13T08:16:25.899Z,54.00
2019-03-13T08:19:12.853Z,54.60
2019-03-13T08:22:16.349Z,54.90
2019-03-13T08:24:53.542Z,55.20
2019-03-13T08:27:41.691Z,55.40
2019-03-13T08:30:34.437Z,56.00
2019-03-13T08:33:10.858Z,56.40
2019-03-13T08:35:53.498Z,56.70
2019-03-13T08:38:44.821Z,56.90
2019-03-13T08:41:35.343Z,57.20
2019-03-13T08:44:13.893Z,57.50
2019-03-13T08:46:50.897Z,58.10
2019-03-13T08:49:37.593Z,58.30
2019-03-13T08:52:38.133Z,58.00
2019-03-13T08:55:38.379Z,58.20
2019-03-13T08:58:30.359Z,58.10
2019-03-13T09:01:21.396Z,57.80
2019-03-13T09:04:02.394Z,57.40
2019-03-13T09:06:43.520Z,57.60
2019-03-13T09:09:50.461Z,57.60
2019-03-13T09:12:54.416Z,57.70
2019-03-13T09:15:40.362Z,57.60
2019-03-13T09:18:24.630Z,57.90
2019-03-13T09:21:22.996Z,57.40
2019-03-13T09:23:59.965Z,56.90
2019-03-13T09:26:58.660Z,57.10
2019-03-13T09:29:53.486Z,56.80
2019-03-13T09:33:01.962Z,56.80
2019-03-13T09:35:41.714Z,56.90
2019-03-13T09:38:42.847Z,56.20
2019-03-13T09:41:21.874Z,56.30
2019-03-13T09:44:25.424Z,56.20
2019-03-13T09:47:13.869Z,55.90
2019-03-13T09:50:05.005Z,55.90
2019-03-13T09:52:48.054Z,54.00
2019-03-13T09:55:27.481Z,53.30
2019-03-13T09:58:19.897Z,52.90
2019-03-13T10:01:06.879Z,52.90
2019-03-13T10:04:04.148Z,53.40
2019-03-13T10:06:40.347Z,53.00
2019-03-13T10:09:23.086Z,52.60
2019-03-13T10:12:10.629Z,53.60
2019-03-13T10:15:08.873Z,54.00
2019-03-13T10:17:45.919Z,54.10
2019-03-13T10:20:37.518Z,54.70
2019-03-13T10:23:29.063Z,53.90
2019-03-13T10:26:16.589Z,52.60
2019-03-13T10:29:07.684Z,51.70
2019-03-13T10:32:11.616Z,50.90
2019-03-13T10:35:05.629Z,50.50
2019-03-13T10:37:48.676Z,48.10
2019-03-13T10:40:36.821Z,46.70
2019-03-13T10:43:37.410Z,45.90
2019-03-13T10:46:14.561Z,45.80
2019-03-13T10:48:59.010Z,45.20
2019-03-13T10:51:47.438Z,45.00
2019-03-13T10:54:23.817Z,44.90
2019-03-13T10:57:04.430Z,44.60
2019-03-13T11:00:08.106Z,43.40
2019-03-13T11:02:53.289Z,43.60
2019-03-13T11:05:44.962Z,42.50
2019-03-13T11:08:38.073Z,42.40
2019-03-13T11:11:19.153Z,42.20
2019-03-13T11:13:55.284Z,42.90
2019-03-13T11:16:53.975Z,42.90
2019-03-13T11:19:42.262Z,42.60
2019-03-13T11:22:29.777Z,43.10
2019-03-13T11:25:09.509Z,43.00
2019-03-13T11:28:11.051Z,43.10
2019-03-13T11:30:59.363Z,43.20
2019-03-13T11:33:46.501Z,43.10
2019-03-13T11:36:27.909Z,43.40
2019-03-13T11:39:05.593Z,42.80
2019-03-13T11:41:54.454Z,42.40
2019-03-13T11:44:32.845Z,42.50
2019-03-13T11:47:26.596Z,42.10
2019-03-13T11:50:17.642Z,42.20
2019-03-13T11:53:04.945Z,41.40
2019-03-13T11:55:54.281Z,42.20
2019-03-13T11:58:32.243Z,41.50
2019-03-13T12:01:17.544Z,42.50
2019-03-13T12:04:12.426Z,44.10
2019-03-13T12:07:00.263Z,40.80
2019-03-13T12:10:04.508Z,41.90
2019-03-13T12:13:04.877Z,42.50
2019-03-13T12:15:51.993Z,42.40
2019-03-13T12:18:49.308Z,43.20
2019-03-13T12:21:36.516Z,43.10
2019-03-13T12:24:31.058Z,42.80
2019-03-13T12:27:28.422Z,42.50
2019-03-13T12:30:16.698Z,42.20
2019-03-13T12:33:11.200Z,42.20
2019-03-13T12:36:03.786Z,42.60
2019-03-13T12:38:39.101Z,42.20
2019-03-13T12:41:26.354Z,41.60
2019-03-13T12:44:17.613Z,41.30
2019-03-13T12:47:00.313Z,41.40
2019-03-13T12:49:48.625Z,40.70
2019-03-13T12:52:33.865Z,41.30
2019-03-13T12:55:25.175Z,42.00
2019-03-13T12:58:12.385Z,42.10
2019-03-13T13:00:59.356Z,43.20
2019-03-13T13:03:46.406Z,43.70
2019-03-13T13:06:27.913Z,44.00
2019-03-13T13:09:25.867Z,45.00
2019-03-13T13:12:14.674Z,45.00
2019-03-13T13:15:01.657Z,46.20
2019-03-13T13:17:57.248Z,46.80
2019-03-13T13:20:26.590Z,46.90
2019-03-13T13:22:55.978Z,47.40
2019-03-13T13:25:25.314Z,48.00
2019-03-13T13:27:54.663Z,48.00
2019-03-13T13:30:23.956Z,47.80
2019-03-13T13:32:53.313Z,49.10
2019-03-13T13:35:22.610Z,49.40
2019-03-13T13:37:51.952Z,49.80
2019-03-13T13:40:21.391Z,48.90
2019-03-13T13:42:50.722Z,49.00
2019-03-13T13:45:44.079Z,49.50
2019-03-13T13:48:13.418Z,49.80
2019-03-13T13:50:42.762Z,49.30
2019-03-13T13:53:12.085Z,49.00
2019-03-13T13:55:41.377Z,49.60
2019-03-13T13:58:12.444Z,49.80
2019-03-13T14:00:41.774Z,49.80
2019-03-13T14:03:11.094Z,50.20
2019-03-13T14:05:41.018Z,50.90
2019-03-13T14:08:11.167Z,51.40
2019-03-13T14:10:40.587Z,51.90
2019-03-13T14:13:09.881Z,52.30
2019-03-13T14:15:39.213Z,52.90
2019-03-13T14:18:08.550Z,52.20
2019-03-13T14:20:37.829Z,52.20
2019-03-13T14:23:07.175Z,53.10
2019-03-13T14:25:36.469Z,54.80
2019-03-13T14:28:05.810Z,56.20
2019-03-13T14:30:35.098Z,56.40
2019-03-13T14:33:04.820Z,56.00
2019-03-13T14:35:34.163Z,55.60
2019-03-13T14:38:03.441Z,56.20
2019-03-13T14:40:32.864Z,56.60
2019-03-13T14:43:02.189Z,55.90
2019-03-13T14:45:31.552Z,55.40
2019-03-13T14:48:00.917Z,55.60
2019-03-13T14:50:30.251Z,55.00
2019-03-13T14:52:59.537Z,55.50
2019-03-13T14:55:28.933Z,57.10
2019-03-13T14:57:58.290Z,58.00
2019-03-13T15:00:27.701Z,59.00
2019-03-13T15:02:57.058Z,58.40
2019-03-13T15:05:26.485Z,58.20
2019-03-13T15:07:55.999Z,57.60
2019-03-13T15:10:26.116Z,57.80
2019-03-13T15:12:55.570Z,58.40
2019-03-13T15:15:24.873Z,59.00
2019-03-13T15:17:54.218Z,59.30
2019-03-13T15:20:23.632Z,59.90
2019-03-13T15:22:53.434Z,60.00
2019-03-13T15:25:22.741Z,60.60
2019-03-13T15:27:52.113Z,60.50
2019-03-13T15:30:22.183Z,60.90
2019-03-13T15:32:51.534Z,61.20
2019-03-13T15:35:21.402Z,61.20
2019-03-13T15:37:51.004Z,61.50
2019-03-13T15:40:21.183Z,61.90
2019-03-13T15:42:50.538Z,61.80
2019-03-13T15:45:20.421Z,61.60
2019-03-13T15:47:49.781Z,61.20
2019-03-13T15:50:19.373Z,61.10
2019-03-13T15:52:49.729Z,60.50
2019-03-13T15:55:19.936Z,58.40
2019-03-13T15:57:49.701Z,60.00
2019-03-13T16:00:21.089Z,57.80
2019-03-13T16:02:50.862Z,63.10
2019-03-13T16:05:20.150Z,61.20
2019-03-13T16:07:49.553Z,59.60
2019-03-13T16:10:19.374Z,61.30
2019-03-13T16:12:49.821Z,61.80
2019-03-13T16:15:20.217Z,61.80
2019-03-13T16:17:49.822Z,61.80
2019-03-13T16:20:20.066Z,62.60
2019-03-13T16:22:54.244Z,62.50
2019-03-13T16:25:23.997Z,61.40
2019-03-13T16:27:53.369Z,63.10
2019-03-13T16:30:24.009Z,60.70
2019-03-13T16:32:53.429Z,60.50
2019-03-13T16:35:22.774Z,59.90
2019-03-13T16:37:52.119Z,60.20
2019-03-13T16:40:21.502Z,60.90
2019-03-13T16:42:50.930Z,62.20
2019-03-13T16:45:21.721Z,63.50
2019-03-13T16:47:51.081Z,64.30
2019-03-13T16:50:21.661Z,65.30
2019-03-13T16:52:51.073Z,65.40
2019-03-13T16:55:21.430Z,65.60
2019-03-13T16:57:50.717Z,65.80
2019-03-13T17:00:21.937Z,64.90
2019-03-13T17:02:51.223Z,65.20
2019-03-13T17:05:20.585Z,64.80
2019-03-13T17:07:50.383Z,64.50
2019-03-13T17:10:21.217Z,64.50
2019-03-13T17:12:50.546Z,64.50
2019-03-13T17:15:21.284Z,65.20
2019-03-13T17:17:51.083Z,65.40
2019-03-13T17:20:25.985Z,65.00
2019-03-13T17:22:53.906Z,65.00
2019-03-13T17:25:23.208Z,65.40
2019-03-13T17:27:52.917Z,65.60
2019-03-13T17:30:24.456Z,65.80
2019-03-13T17:32:53.737Z,66.00
2019-03-13T17:35:23.061Z,66.20
2019-03-13T17:37:53.367Z,65.90
2019-03-13T17:40:23.741Z,65.70
2019-03-13T17:42:53.194Z,66.20
2019-03-13T17:45:23.118Z,65.80
2019-03-13T17:47:52.526Z,65.60
2019-03-13T17:50:21.869Z,65.70
2019-03-13T17:52:53.660Z,65.60
2019-03-13T17:55:36.302Z,64.70
2019-03-13T17:58:06.633Z,65.50
2019-03-13T18:00:42.082Z,66.20
2019-03-13T18:03:11.423Z,66.10
2019-03-13T18:05:41.265Z,66.00
2019-03-13T18:08:10.563Z,65.70
2019-03-13T18:10:39.974Z,66.20
2019-03-13T18:13:09.305Z,66.30
2019-03-13T18:15:38.667Z,67.00
2019-03-13T18:18:09.062Z,67.60
2019-03-13T18:20:38.469Z,67.10
2019-03-13T18:23:08.889Z,66.20
2019-03-13T18:25:48.370Z,65.80
2019-03-13T18:28:18.350Z,60.50
2019-03-13T18:30:48.792Z,58.80
2019-03-13T18:33:21.197Z,57.70
2019-03-13T18:35:58.509Z,57.30
2019-03-13T18:38:27.886Z,57.50
2019-03-13T18:40:59.226Z,57.50
2019-03-13T18:43:31.865Z,57.60
2019-03-13T18:46:05.245Z,57.70
2019-03-13T18:48:41.670Z,57.70
2019-03-13T18:51:14.205Z,57.70
2019-03-13T18:53:44.523Z,57.80
2019-03-13T18:56:13.918Z,58.10
2019-03-13T18:58:48.237Z,58.30
2019-03-13T19:01:19.581Z,58.30
2019-03-13T19:03:48.942Z,58.30
2019-03-13T19:06:24.174Z,58.60
2019-03-13T19:09:00.489Z,58.90
2019-03-13T19:11:30.868Z,58.90
2019-03-13T19:14:00.269Z,59.10
2019-03-13T19:16:39.753Z,58.90
2019-03-13T19:19:09.286Z,59.20
2019-03-13T19:21:38.691Z,59.60
2019-03-13T19:24:08.280Z,59.30
2019-03-13T19:26:37.659Z,59.70
2019-03-13T19:29:07.083Z,60.20
2019-03-13T19:31:36.690Z,61.40
2019-03-13T19:34:06.058Z,62.40
2019-03-13T19:36:35.456Z,63.00
2019-03-13T19:39:08.635Z,63.50
2019-03-13T19:41:39.090Z,64.00
2019-03-13T19:44:08.542Z,64.90
2019-03-13T19:46:38.021Z,65.00
2019-03-13T19:49:07.368Z,65.60
2019-03-13T19:51:37.860Z,65.80
2019-03-13T19:54:07.284Z,66.00
2019-03-13T19:56:36.729Z,66.20
2019-03-13T19:59:06.142Z,66.50
2019-03-13T20:01:35.582Z,66.10
2019-03-13T20:04:05.901Z,66.00
2019-03-13T20:06:42.019Z,65.90
2019-03-13T20:09:08.129Z,66.00
2019-03-13T20:11:37.566Z,66.30
2019-03-13T20:14:07.625Z,65.70
2019-03-13T20:16:37.074Z,65.90
2019-03-13T20:19:06.429Z,65.70
2019-03-13T20:21:35.916Z,65.60
2019-03-13T20:24:05.451Z,65.60
2019-03-13T20:26:34.991Z,65.60
2019-03-13T20:29:04.434Z,64.90
2019-03-13T20:31:33.924Z,65.00
2019-03-13T20:34:03.374Z,64.80
2019-03-13T20:36:32.905Z,65.80
2019-03-13T20:39:02.617Z,64.90
2019-03-13T20:41:32.131Z,65.40
2019-03-13T20:44:01.602Z,65.60
2019-03-13T20:46:31.202Z,65.50
2019-03-13T20:49:00.651Z,65.30
2019-03-13T20:51:30.133Z,64.90
2019-03-13T20:53:59.619Z,64.60
2019-03-13T20:56:29.315Z,64.20
2019-03-13T20:58:58.827Z,63.70
2019-03-13T21:01:28.189Z,63.40
2019-03-13T21:03:57.577Z,62.90
2019-03-13T21:06:26.936Z,63.00
2019-03-13T21:08:56.221Z,63.30
2019-03-13T21:11:25.565Z,63.60
2019-03-13T21:13:54.857Z,63.90
2019-03-13T21:16:24.249Z,64.10
2019-03-13T21:18:53.600Z,64.60
2019-03-13T21:21:22.968Z,65.20
2019-03-13T21:23:52.305Z,65.50
2019-03-13T21:26:21.636Z,65.80
2019-03-13T21:28:51.091Z,66.00
2019-03-13T21:31:20.669Z,65.50
2019-03-13T21:33:50.441Z,66.00
2019-03-13T21:36:19.940Z,65.70
2019-03-13T21:38:49.428Z,66.20
2019-03-13T21:41:18.940Z,67.40
2019-03-13T21:43:50.864Z,67.10
2019-03-13T21:46:19.834Z,66.80
2019-03-13T21:48:49.445Z,66.80
2019-03-13T21:51:18.890Z,66.70
2019-03-13T21:53:48.222Z,66.60
2019-03-13T21:56:17.762Z,66.30
2019-03-13T21:58:47.185Z,66.60
2019-03-13T22:01:20.117Z,67.20
2019-03-13T22:03:47.564Z,67.90
2019-03-13T22:06:28.159Z,67.70
2019-03-13T22:08:48.081Z,67.10
2019-03-13T22:11:17.490Z,66.30
2019-03-13T22:13:46.787Z,64.90
2019-03-13T22:16:16.818Z,63.70
2019-03-13T22:18:46.194Z,62.40
2019-03-13T22:21:15.528Z,61.40
2019-03-13T22:23:44.942Z,61.60
2019-03-13T22:26:14.221Z,60.50
2019-03-13T22:28:43.583Z,60.50
2019-03-13T22:31:12.965Z,60.30
2019-03-13T22:33:42.302Z,59.80
2019-03-13T22:36:11.575Z,59.50
2019-03-13T22:38:40.909Z,58.40
2019-03-13T22:41:10.347Z,58.20
2019-03-13T22:43:40.718Z,58.10
2019-03-13T22:46:10.046Z,57.80
2019-03-13T22:48:39.409Z,57.50
2019-03-13T22:51:08.865Z,57.50
2019-03-13T22:53:38.183Z,56.60
2019-03-13T22:56:07.609Z,56.50
2019-03-13T22:58:36.979Z,56.00
2019-03-13T23:01:09.828Z,54.90
2019-03-13T23:03:40.485Z,54.40
2019-03-13T23:06:10.261Z,54.00
2019-03-13T23:08:39.656Z,53.80
2019-03-13T23:11:09.025Z,53.50
2019-03-13T23:13:38.380Z,53.80
2019-03-13T23:16:07.732Z,52.80
2019-03-13T23:18:37.053Z,52.40
2019-03-13T23:21:06.374Z,52.10
2019-03-13T23:23:35.713Z,52.00
2019-03-13T23:26:05.087Z,52.30
2019-03-13T23:28:34.413Z,52.50
2019-03-13T23:31:03.707Z,52.00
2019-03-13T23:33:33.038Z,52.20
2019-03-13T23:36:02.379Z,52.30
2019-03-13T23:38:32.646Z,52.40
2019-03-13T23:41:01.993Z,52.40
2019-03-13T23:43:31.264Z,53.20
2019-03-13T23:46:00.600Z,53.70
2019-03-13T23:48:30.483Z,53.70
2019-03-13T23:50:59.849Z,53.70
2019-03-13T23:53:29.173Z,53.70
2019-03-13T23:55:58.456Z,54.00
2019-03-13T23:58:27.805Z,54.10
